Time;durP1;ratioP1;P1;durP2;ratioP2;P2;SDS_P1;SDS_P2;PMS_P1;PMS_P2;Temp;Humidity;BMP_temperature;BMP_pressure;BME280_temperature;BME280_humidity;BME280_pressure;Samples;Min_cycle;Max_cycle;Signal;HPM_P1;HPM_P2
2023/05/29 00:02:09;;;;;;;7.43;3.30;;;17.30;81.70;;;;;;5055156;28;20144;-88
2023/05/29 00:04:36;;;;;;;7.07;3.08;;;17.30;82.00;;;;;;5056087;28;20454;-87
2023/05/29 00:07:02;;;;;;;7.90;3.28;;;17.30;81.70;;;;;;5055511;28;20054;-88
2023/05/29 00:09:28;;;;;;;8.23;3.30;;;17.20;81.70;;;;;;5057430;28;20025;-87
2023/05/29 00:11:53;;;;;;;7.45;3.28;;;17.20;81.80;;;;;;5059373;28;20029;-87
2023/05/29 00:14:20;;;;;;;9.60;3.25;;;17.20;82.70;;;;;;5059330;28;20033;-87
2023/05/29 00:16:46;;;;;;;7.32;3.00;;;17.20;82.10;;;;;;5060463;28;20064;-87
2023/05/29 00:19:13;;;;;;;6.35;3.15;;;17.20;82.10;;;;;;5058820;28;20021;-87
2023/05/29 00:21:40;;;;;;;6.75;3.03;;;17.10;82.10;;;;;;5056175;28;20040;-87
2023/05/29 00:24:05;;;;;;;4.97;2.58;;;17.20;82.30;;;;;;5055124;28;20036;-87
2023/05/29 00:26:31;;;;;;;7.32;3.22;;;17.10;82.20;;;;;;5055866;28;20390;-87
2023/05/29 00:28:57;;;;;;;4.93;2.20;;;17.10;82.00;;;;;;5055467;28;20102;-86
2023/05/29 00:31:24;;;;;;;7.50;3.42;;;17.10;81.40;;;;;;5056667;28;20451;-87
2023/05/29 00:33:50;;;;;;;6.40;2.90;;;17.10;81.30;;;;;;5055740;28;20056;-87
2023/05/29 00:36:16;;;;;;;5.93;2.53;;;17.10;81.60;;;;;;5056248;28;20462;-87
2023/05/29 00:38:41;;;;;;;6.22;2.85;;;17.10;81.40;;;;;;5055499;28;20381;-86
2023/05/29 00:41:07;;;;;;;8.00;2.63;;;17.10;81.00;;;;;;5054597;28;20033;-86
2023/05/29 00:43:32;;;;;;;8.18;2.83;;;17.10;80.30;;;;;;5055854;28;20031;-86
2023/05/29 00:45:58;;;;;;;5.10;2.47;;;17.10;80.90;;;;;;5055999;28;20029;-86
2023/05/29 00:48:25;;;;;;;5.38;2.50;;;17.10;80.20;;;;;;5055191;28;20063;-86
2023/05/29 00:50:51;;;;;;;6.07;2.63;;;17.10;80.10;;;;;;5056376;28;20029;-86
2023/05/29 00:53:17;;;;;;;4.55;2.30;;;17.10;79.80;;;;;;5054582;28;20052;-86
2023/05/29 00:55:42;;;;;;;5.53;2.50;;;17.10;80.30;;;;;;5055048;28;20056;-87
2023/05/29 00:58:08;;;;;;;5.65;2.45;;;17.00;81.20;;;;;;5055188;28;20055;-87
2023/05/29 01:00:35;;;;;;;7.03;2.70;;;17.00;81.40;;;;;;5054647;28;20367;-87
2023/05/29 01:03:04;;;;;;;7.28;2.85;;;16.90;80.90;;;;;;5055030;28;20045;-87
2023/05/29 01:05:35;;;;;;;4.80;2.38;;;17.00;79.30;;;;;;5055818;28;20021;-87
2023/05/29 01:08:02;;;;;;;5.90;2.85;;;17.00;79.40;;;;;;5054400;28;20024;-87
2023/05/29 01:10:28;;;;;;;8.27;2.65;;;17.00;80.00;;;;;;5055677;28;20037;-87
2023/05/29 01:13:09;;;;;;;8.85;2.63;;;17.00;80.20;;;;;;5054871;28;20047;-88
2023/05/29 01:15:53;;;;;;;6.07;2.90;;;16.90;80.80;;;;;;5055953;28;20032;-88
2023/05/29 01:18:34;;;;;;;7.47;2.90;;;17.00;80.80;;;;;;5055070;28;20032;-88
2023/05/29 01:21:23;;;;;;;6.25;3.10;;;16.90;81.60;;;;;;5054209;28;20037;-87
2023/05/29 01:24:01;;;;;;;6.40;3.30;;;16.90;81.70;;;;;;5054661;28;20041;-87
2023/05/29 01:26:42;;;;;;;9.10;3.08;;;16.80;82.20;;;;;;5054682;28;20169;-88
2023/05/29 01:29:08;;;;;;;6.57;2.60;;;16.80;82.50;;;;;;5053873;28;20071;-88
2023/05/29 01:31:36;;;;;;;4.82;3.05;;;16.80;81.80;;;;;;5059049;28;20099;-87
2023/05/29 01:34:02;;;;;;;7.10;2.97;;;16.90;81.60;;;;;;5063204;28;20051;-86
2023/05/29 01:36:28;;;;;;;3.80;2.40;;;16.90;81.60;;;;;;5066723;28;20104;-88
2023/05/29 01:38:56;;;;;;;6.05;2.80;;;16.90;81.80;;;;;;5062175;28;20021;-87
2023/05/29 01:41:24;;;;;;;4.88;2.78;;;16.80;82.30;;;;;;5059645;28;20126;-87
2023/05/29 01:43:50;;;;;;;8.73;3.30;;;16.70;82.90;;;;;;5062613;28;20033;-88
2023/05/29 01:46:17;;;;;;;5.13;2.60;;;16.70;83.20;;;;;;5063602;28;20088;-87
2023/05/29 01:48:43;;;;;;;5.63;2.70;;;16.80;82.20;;;;;;5057481;28;20024;-87
2023/05/29 01:51:11;;;;;;;6.38;2.47;;;16.80;82.10;;;;;;5055327;28;20037;-86
2023/05/29 01:53:37;;;;;;;5.10;2.70;;;16.80;82.20;;;;;;5057010;28;20091;-86
2023/05/29 01:56:04;;;;;;;3.75;2.63;;;16.80;82.10;;;;;;5055431;28;20103;-86
2023/05/29 01:58:31;;;;;;;4.32;2.70;;;16.80;81.90;;;;;;5056005;28;20039;-85
2023/05/29 02:00:57;;;;;;;4.82;2.53;;;16.90;82.10;;;;;;5054224;28;20045;-85
2023/05/29 02:03:23;;;;;;;7.43;3.10;;;16.80;82.50;;;;;;5054133;28;20105;-86
2023/05/29 02:05:49;;;;;;;7.72;2.88;;;16.70;83.30;;;;;;5054593;28;20074;-86
2023/05/29 02:08:15;;;;;;;5.43;2.55;;;16.60;83.80;;;;;;5054295;28;20462;-86
2023/05/29 02:10:41;;;;;;;7.60;2.70;;;16.60;83.90;;;;;;5054113;28;20040;-89
2023/05/29 02:13:06;;;;;;;5.05;2.75;;;16.60;84.10;;;;;;5053576;28;20462;-88
2023/05/29 02:15:32;;;;;;;6.18;2.88;;;16.60;84.20;;;;;;5054917;28;20029;-89
2023/05/29 02:17:58;;;;;;;4.57;2.50;;;16.60;84.10;;;;;;5053862;28;20068;-89
2023/05/29 02:20:24;;;;;;;6.18;2.65;;;16.60;85.30;;;;;;5053235;28;20032;-89
2023/05/29 02:22:50;;;;;;;6.22;2.70;;;16.50;84.80;;;;;;5053550;28;20029;-89
2023/05/29 02:25:15;;;;;;;6.60;2.97;;;16.50;84.40;;;;;;5054139;28;20035;-90
2023/05/29 02:27:41;;;;;;;7.80;2.50;;;16.60;84.40;;;;;;5053468;28;20062;-91
2023/05/29 02:30:08;;;;;;;5.72;2.75;;;16.60;84.30;;;;;;5053173;28;20037;-88
2023/05/29 02:32:33;;;;;;;5.60;2.80;;;16.60;84.50;;;;;;5053363;28;20041;-90
2023/05/29 02:34:59;;;;;;;4.97;2.42;;;16.50;84.90;;;;;;5054687;28;20025;-89
2023/05/29 02:37:25;;;;;;;5.15;3.00;;;16.50;85.30;;;;;;5053145;28;20106;-89
2023/05/29 02:39:52;;;;;;;6.93;2.45;;;16.50;85.30;;;;;;5053767;28;20033;-89
2023/05/29 02:42:17;;;;;;;5.25;2.80;;;16.50;85.20;;;;;;5054023;28;20035;-89
2023/05/29 02:44:43;;;;;;;6.40;2.65;;;16.50;85.10;;;;;;5053730;28;20028;-90
2023/05/29 02:47:09;;;;;;;5.18;2.55;;;16.50;85.20;;;;;;5052693;28;20029;-90
2023/05/29 02:49:35;;;;;;;5.25;2.80;;;16.40;85.50;;;;;;5053076;28;20021;-90
2023/05/29 02:52:00;;;;;;;5.18;2.90;;;16.50;85.50;;;;;;5053055;28;20358;-91
2023/05/29 02:54:26;;;;;;;6.43;2.63;;;16.40;85.70;;;;;;5053846;28;20033;-90
2023/05/29 02:56:52;;;;;;;4.47;2.55;;;16.20;86.10;;;;;;5052936;28;20123;-85
2023/05/29 02:59:18;;;;;;;10.57;3.00;;;16.20;86.30;;;;;;5052824;28;20056;-86
2023/05/29 03:01:43;;;;;;;5.72;3.13;;;16.20;86.50;;;;;;5052463;28;20076;-86
2023/05/29 03:04:12;;;;;;;5.15;2.75;;;16.20;86.60;;;;;;5052584;28;20064;-87
2023/05/29 03:06:38;;;;;;;6.30;3.03;;;16.20;86.70;;;;;;5054330;28;20033;-87
2023/05/29 03:09:06;;;;;;;6.55;3.10;;;16.20;86.90;;;;;;5056821;28;20025;-87
2023/05/29 03:11:33;;;;;;;5.57;3.00;;;16.10;87.40;;;;;;5057741;28;20108;-87
2023/05/29 03:13:58;;;;;;;8.75;2.60;;;16.20;87.60;;;;;;5056739;28;20025;-86
2023/05/29 03:16:25;;;;;;;5.43;2.92;;;16.10;87.50;;;;;;5057457;28;20028;-88
2023/05/29 03:18:50;;;;;;;5.30;2.50;;;16.00;87.60;;;;;;5056735;28;20060;-88
2023/05/29 03:21:16;;;;;;;5.65;2.65;;;16.10;87.80;;;;;;5056176;28;20037;-88
2023/05/29 03:23:42;;;;;;;5.28;2.60;;;16.00;87.90;;;;;;5056482;28;20029;-88
2023/05/29 03:26:08;;;;;;;7.50;2.63;;;16.00;88.00;;;;;;5056040;28;20079;-86
2023/05/29 03:28:34;;;;;;;6.20;2.60;;;15.90;88.50;;;;;;5056467;28;20025;-88
2023/05/29 03:30:59;;;;;;;7.50;3.25;;;15.90;89.00;;;;;;5056466;28;20052;-87
2023/05/29 03:33:25;;;;;;;5.00;2.50;;;15.80;89.30;;;;;;5056135;28;20117;-87
2023/05/29 03:35:51;;;;;;;4.57;2.53;;;15.80;89.60;;;;;;5057251;28;20032;-88
2023/05/29 03:38:16;;;;;;;7.10;2.75;;;15.80;89.70;;;;;;5057185;28;20063;-87
2023/05/29 03:40:42;;;;;;;5.60;2.58;;;15.70;90.00;;;;;;5056455;28;20037;-87
2023/05/29 03:43:08;;;;;;;7.28;2.45;;;15.70;90.00;;;;;;5056808;28;20025;-87
2023/05/29 03:45:33;;;;;;;5.07;2.65;;;15.70;90.20;;;;;;5057519;28;20378;-86
2023/05/29 03:47:59;;;;;;;6.40;3.20;;;15.60;90.20;;;;;;5056659;28;20033;-85
2023/05/29 03:50:24;;;;;;;7.25;2.97;;;15.50;90.50;;;;;;5055645;28;20035;-86
2023/05/29 03:52:50;;;;;;;4.85;2.67;;;15.50;90.60;;;;;;5057136;28;20108;-85
2023/05/29 03:55:16;;;;;;;5.78;2.70;;;15.50;90.80;;;;;;5055561;28;20029;-86
2023/05/29 03:57:42;;;;;;;5.63;2.50;;;15.40;91.00;;;;;;5055640;28;20111;-86
2023/05/29 04:00:11;;;;;;;6.95;3.22;;;15.30;91.10;;;;;;5057078;28;20033;-85
2023/05/29 04:02:38;;;;;;;4.75;2.72;;;15.40;91.10;;;;;;5057394;28;20389;-85
2023/05/29 04:05:06;;;;;;;5.72;2.63;;;15.30;91.20;;;;;;5056090;28;20496;-86
2023/05/29 04:07:32;;;;;;;6.65;3.25;;;15.20;91.30;;;;;;5056824;28;20466;-86
2023/05/29 04:09:57;;;;;;;7.15;3.03;;;15.20;91.40;;;;;;5055650;28;20112;-87
2023/05/29 04:12:23;;;;;;;5.45;2.92;;;15.20;91.50;;;;;;5055410;28;20063;-86
2023/05/29 04:14:48;;;;;;;6.45;2.72;;;15.20;91.60;;;;;;5056899;28;20025;-86
2023/05/29 04:17:14;;;;;;;4.88;2.47;;;15.20;91.60;;;;;;5055101;28;20538;-86
2023/05/29 04:19:40;;;;;;;6.47;3.05;;;15.10;91.70;;;;;;5056498;28;20032;-85
2023/05/29 04:22:05;;;;;;;8.63;3.30;;;15.20;91.80;;;;;;5056979;28;20033;-86
2023/05/29 04:24:35;;;;;;;7.63;3.00;;;15.10;91.80;;;;;;5056584;28;20056;-85
2023/05/29 04:27:01;;;;;;;5.47;2.80;;;15.10;92.30;;;;;;5055400;28;20033;-85
2023/05/29 04:29:30;;;;;;;6.45;2.47;;;15.20;91.80;;;;;;5056046;28;20028;-86
2023/05/29 04:31:56;;;;;;;7.75;3.08;;;15.20;91.70;;;;;;5055019;28;20083;-86
2023/05/29 04:34:22;;;;;;;5.57;2.63;;;15.20;91.60;;;;;;5054751;28;20054;-86
2023/05/29 04:36:48;;;;;;;10.73;3.03;;;15.20;91.80;;;;;;5055017;28;20104;-85
2023/05/29 04:39:13;;;;;;;4.80;2.60;;;15.20;92.00;;;;;;5055818;28;20029;-87
2023/05/29 04:41:40;;;;;;;5.10;2.50;;;15.10;92.10;;;;;;5055209;28;20041;-87
2023/05/29 04:44:07;;;;;;;5.60;2.75;;;15.10;92.20;;;;;;5056344;28;20021;-88
2023/05/29 04:46:34;;;;;;;5.93;2.25;;;15.10;92.20;;;;;;5054507;28;20386;-87
2023/05/29 04:49:02;;;;;;;4.88;2.50;;;15.10;92.20;;;;;;5055150;28;20032;-88
2023/05/29 04:51:29;;;;;;;9.82;2.70;;;15.20;92.00;;;;;;5054743;28;20033;-88
2023/05/29 04:53:56;;;;;;;4.95;2.70;;;15.20;91.80;;;;;;5056183;28;20036;-88
2023/05/29 04:56:22;;;;;;;9.98;3.30;;;15.30;91.90;;;;;;5055461;28;20025;-88
2023/05/29 04:58:48;;;;;;;4.65;2.42;;;15.30;91.80;;;;;;5054807;28;20032;-88
2023/05/29 05:01:14;;;;;;;5.50;2.60;;;15.30;92.00;;;;;;5055056;28;20040;-85
2023/05/29 05:03:43;;;;;;;6.32;3.20;;;15.30;92.30;;;;;;5056435;28;20025;-88
2023/05/29 05:06:09;;;;;;;5.80;2.42;;;15.30;92.50;;;;;;5054892;28;20199;-88
2023/05/29 05:08:35;;;;;;;5.68;2.65;;;15.30;92.00;;;;;;5054086;28;20025;-89
2023/05/29 05:11:01;;;;;;;6.20;3.20;;;15.40;91.80;;;;;;5054453;28;20025;-88
2023/05/29 05:13:27;;;;;;;5.93;3.10;;;15.50;92.10;;;;;;5055015;28;20425;-88
2023/05/29 05:15:53;;;;;;;6.75;2.53;;;15.50;92.30;;;;;;5054097;28;20029;-88
2023/05/29 05:18:19;;;;;;;5.72;2.80;;;15.50;92.60;;;;;;5053982;28;20029;-87
2023/05/29 05:20:46;;;;;;;7.82;2.70;;;15.60;92.70;;;;;;5054204;28;20466;-89
2023/05/29 05:23:11;;;;;;;4.78;2.70;;;15.60;91.90;;;;;;5054326;28;20044;-89
2023/05/29 05:25:38;;;;;;;6.20;2.70;;;15.60;91.70;;;;;;5055002;28;20033;-88
2023/05/29 05:28:04;;;;;;;6.07;2.60;;;15.60;91.70;;;;;;5055252;28;20029;-91
2023/05/29 05:30:30;;;;;;;7.70;2.60;;;15.60;91.70;;;;;;5052252;28;20029;-91
2023/05/29 05:32:56;;;;;;;6.43;2.60;;;15.70;91.90;;;;;;5053710;28;20036;-91
2023/05/29 05:35:22;;;;;;;6.75;2.70;;;15.70;91.60;;;;;;5053544;28;20035;-92
2023/05/29 05:37:47;;;;;;;4.10;2.60;;;15.70;91.40;;;;;;5054082;28;20405;-93
2023/05/29 05:40:13;;;;;;;11.82;2.70;;;15.80;91.30;;;;;;5054111;28;20358;-91
2023/05/29 05:42:39;;;;;;;4.28;2.47;;;15.80;91.40;;;;;;5054642;28;20497;-92
2023/05/29 05:45:06;;;;;;;5.15;2.70;;;15.80;91.50;;;;;;5054124;28;20032;-88
2023/05/29 05:47:32;;;;;;;8.43;2.60;;;15.90;91.20;;;;;;5054531;28;20043;-88
2023/05/29 05:49:58;;;;;;;5.10;2.75;;;15.90;91.00;;;;;;5054779;28;20050;-88
2023/05/29 05:52:25;;;;;;;7.65;2.85;;;15.90;91.10;;;;;;5053253;28;20029;-86
2023/05/29 05:54:51;;;;;;;4.60;2.75;;;15.90;90.90;;;;;;5054650;28;20033;-88
2023/05/29 05:57:17;;;;;;;4.47;2.50;;;15.90;91.20;;;;;;5054595;28;20032;-86
2023/05/29 05:59:42;;;;;;;7.53;2.88;;;16.00;90.90;;;;;;5054492;28;20374;-87
2023/05/29 06:02:08;;;;;;;6.95;2.78;;;16.00;91.00;;;;;;5053358;28;20087;-87
2023/05/29 06:04:35;;;;;;;5.05;2.47;;;16.10;90.80;;;;;;5053120;28;20028;-87
2023/05/29 06:07:01;;;;;;;5.50;2.60;;;16.10;90.80;;;;;;5054672;28;20025;-87
2023/05/29 06:09:26;;;;;;;6.10;2.55;;;16.20;90.70;;;;;;5053040;28;20025;-87
2023/05/29 06:11:52;;;;;;;4.65;2.58;;;16.20;90.70;;;;;;5054362;28;20029;-87
2023/05/29 06:14:17;;;;;;;8.13;2.30;;;16.20;90.80;;;;;;5052998;28;20079;-88
2023/05/29 06:16:43;;;;;;;3.65;2.45;;;16.30;90.60;;;;;;5053687;28;20025;-86
2023/05/29 06:19:09;;;;;;;6.60;2.63;;;16.30;90.30;;;;;;5054529;28;20107;-86
2023/05/29 06:21:35;;;;;;;6.22;2.38;;;16.30;90.30;;;;;;5052930;28;20085;-86
2023/05/29 06:24:00;;;;;;;7.85;2.58;;;16.40;90.30;;;;;;5054356;28;20408;-88
2023/05/29 06:26:26;;;;;;;6.32;2.67;;;16.40;90.30;;;;;;5053156;28;20397;-88
2023/05/29 06:28:52;;;;;;;5.75;2.50;;;16.50;90.30;;;;;;5054461;28;20017;-87
2023/05/29 06:31:18;;;;;;;5.40;2.45;;;16.50;90.30;;;;;;5054378;28;20086;-86
2023/05/29 06:33:44;;;;;;;6.45;2.20;;;16.50;90.40;;;;;;5053322;28;20079;-88
2023/05/29 06:36:10;;;;;;;5.82;2.35;;;16.60;90.50;;;;;;5054449;28;20378;-88
2023/05/29 06:38:36;;;;;;;5.53;2.30;;;16.60;90.40;;;;;;5052360;28;20078;-88
2023/05/29 06:41:02;;;;;;;6.53;2.72;;;16.70;90.20;;;;;;5052695;28;20128;-89
2023/05/29 06:43:28;;;;;;;5.07;1.98;;;16.70;90.20;;;;;;5052766;28;20085;-86
2023/05/29 06:45:54;;;;;;;5.90;2.50;;;16.80;90.30;;;;;;5054136;28;20029;-88
2023/05/29 06:48:20;;;;;;;4.65;2.60;;;16.90;90.30;;;;;;5052877;28;20082;-88
2023/05/29 06:50:47;;;;;;;6.68;2.55;;;16.90;90.20;;;;;;5054026;28;20025;-89
2023/05/29 06:53:13;;;;;;;4.45;2.40;;;17.00;90.40;;;;;;5052363;28;20051;-89
2023/05/29 06:55:40;;;;;;;4.97;2.55;;;17.00;89.90;;;;;;5052188;28;20470;-85
2023/05/29 06:58:06;;;;;;;8.20;2.45;;;17.10;89.40;;;;;;5052662;28;20026;-88
2023/05/29 07:00:32;;;;;;;5.38;2.10;;;17.20;89.40;;;;;;5052259;28;20090;-90
2023/05/29 07:02:57;;;;;;;4.32;2.15;;;17.20;89.30;;;;;;5053698;28;20164;-88
2023/05/29 07:05:23;;;;;;;8.40;2.28;;;17.30;87.40;;;;;;5052280;28;20021;-87
2023/05/29 07:07:48;;;;;;;4.30;1.90;;;17.30;86.00;;;;;;5054065;28;20031;-88
2023/05/29 07:10:14;;;;;;;4.13;2.17;;;17.40;84.80;;;;;;5053027;28;20067;-88
2023/05/29 07:12:40;;;;;;;4.55;2.38;;;17.50;84.60;;;;;;5052084;28;20033;-88
2023/05/29 07:15:06;;;;;;;5.47;2.20;;;17.50;85.00;;;;;;5056376;28;20065;-88
2023/05/29 07:17:31;;;;;;;6.60;2.35;;;17.60;84.80;;;;;;5058723;28;20025;-88
2023/05/29 07:19:57;;;;;;;4.68;2.33;;;17.60;84.60;;;;;;5056168;28;20052;-88
2023/05/29 07:22:22;;;;;;;8.40;2.85;;;17.70;85.50;;;;;;5067779;28;20036;-87
2023/05/29 07:24:48;;;;;;;4.70;2.50;;;17.70;85.80;;;;;;5077610;28;20037;-90
2023/05/29 07:27:13;;;;;;;5.75;2.70;;;17.70;85.70;;;;;;5081052;28;20029;-89
2023/05/29 07:29:39;;;;;;;6.97;2.95;;;17.70;85.70;;;;;;5074671;28;20583;-86
2023/05/29 07:32:05;;;;;;;7.40;3.13;;;17.80;85.20;;;;;;5076283;28;20048;-87
2023/05/29 07:34:31;;;;;;;5.03;2.22;;;17.90;84.90;;;;;;5073210;28;20036;-86
2023/05/29 07:37:02;;;;;;;6.22;2.58;;;17.90;84.10;;;;;;5073248;28;20052;-86
2023/05/29 07:39:28;;;;;;;6.38;2.63;;;18.00;84.20;;;;;;5073787;28;20126;-85
2023/05/29 07:41:54;;;;;;;6.55;2.40;;;18.00;85.10;;;;;;5072936;28;20055;-86
2023/05/29 07:44:19;;;;;;;10.45;2.65;;;18.00;85.20;;;;;;5074179;28;20028;-89
2023/05/29 07:46:45;;;;;;;9.45;4.15;;;18.00;85.50;;;;;;5071908;28;20027;-90
2023/05/29 07:49:11;;;;;;;7.32;2.97;;;18.10;85.40;;;;;;5073651;28;20032;-90
2023/05/29 07:51:37;;;;;;;6.50;2.88;;;18.10;84.50;;;;;;5059177;28;20072;-91
2023/05/29 07:54:03;;;;;;;5.80;2.78;;;18.10;85.20;;;;;;5055025;28;20470;-90
2023/05/29 07:56:29;;;;;;;4.10;2.40;;;18.20;85.60;;;;;;5055471;28;20029;-90
2023/05/29 07:58:54;;;;;;;4.32;1.92;;;18.20;86.40;;;;;;5056914;28;20025;-87
2023/05/29 08:01:21;;;;;;;6.20;2.30;;;18.30;85.90;;;;;;5066420;28;20060;-90
2023/05/29 08:03:47;;;;;;;4.43;2.30;;;18.30;85.70;;;;;;5080082;28;20031;-90
2023/05/29 08:06:13;;;;;;;5.18;2.15;;;18.30;85.60;;;;;;5068401;28;20071;-85
2023/05/29 08:08:38;;;;;;;6.07;2.65;;;18.40;84.80;;;;;;5055883;28;20029;-90
2023/05/29 08:11:04;;;;;;;7.15;2.58;;;18.50;84.70;;;;;;5067537;28;20059;-90
2023/05/29 08:13:30;;;;;;;5.25;2.45;;;18.50;84.50;;;;;;5077540;28;20059;-87
2023/05/29 08:15:56;;;;;;;7.63;2.67;;;18.50;84.30;;;;;;5068730;28;20064;-87
2023/05/29 08:18:25;;;;;;;4.82;2.50;;;18.50;84.30;;;;;;5071889;28;20116;-87
2023/05/29 08:20:52;;;;;;;5.22;2.30;;;18.60;83.60;;;;;;5076247;28;20032;-88
2023/05/29 08:23:18;;;;;;;8.63;2.65;;;18.60;84.00;;;;;;5075102;28;20039;-87
2023/05/29 08:25:44;;;;;;;6.43;2.95;;;18.70;82.90;;;;;;5074556;28;20028;-89
2023/05/29 08:28:09;;;;;;;5.47;2.42;;;18.70;84.10;;;;;;5076036;28;20509;-87
2023/05/29 08:30:35;;;;;;;3.90;2.20;;;18.80;82.50;;;;;;5075653;28;20033;-90
2023/05/29 08:33:01;;;;;;;5.50;2.20;;;18.80;82.40;;;;;;5070593;28;20033;-90
2023/05/29 08:35:27;;;;;;;5.82;2.45;;;18.90;83.30;;;;;;5072486;28;20037;-91
2023/05/29 08:37:52;;;;;;;4.75;2.05;;;19.00;82.50;;;;;;5070680;28;20500;-90
2023/05/29 08:40:18;;;;;;;5.32;2.03;;;19.00;81.60;;;;;;5062987;28;20035;-86
2023/05/29 08:42:51;;;;;;;3.25;2.03;;;19.10;81.30;;;;;;5065974;28;20075;-91
2023/05/29 08:45:21;;;;;;;4.32;2.20;;;19.20;81.50;;;;;;5072180;28;20036;-89
2023/05/29 08:47:51;;;;;;;3.80;2.30;;;19.20;81.00;;;;;;5054676;28;20037;-89
2023/05/29 08:50:18;;;;;;;4.93;2.47;;;19.30;80.30;;;;;;5062333;28;20086;-88
2023/05/29 08:52:44;;;;;;;5.90;2.22;;;19.30;80.40;;;;;;5063151;28;20059;-88
2023/05/29 08:55:10;;;;;;;4.38;2.00;;;19.40;80.20;;;;;;5068451;28;20036;-88
2023/05/29 08:57:38;;;;;;;6.55;2.60;;;19.50;79.90;;;;;;5073408;28;20515;-87
2023/05/29 09:00:12;;;;;;;5.25;2.17;;;19.50;79.90;;;;;;5074908;28;20024;-88
2023/05/29 09:02:38;;;;;;;4.88;2.30;;;19.60;81.50;;;;;;5090224;28;20389;-87
2023/05/29 09:05:06;;;;;;;5.35;2.40;;;19.60;80.50;;;;;;5074414;28;20024;-90
2023/05/29 09:07:32;;;;;;;6.20;2.53;;;19.70;80.10;;;;;;5073905;28;20054;-87
2023/05/29 09:09:58;;;;;;;3.58;2.28;;;19.70;79.80;;;;;;5057479;28;20036;-77
2023/05/29 09:12:24;;;;;;;4.47;2.53;;;19.80;82.00;;;;;;5072202;28;20049;-78
2023/05/29 09:14:50;;;;;;;4.97;2.17;;;19.80;80.50;;;;;;5064687;28;20071;-78
2023/05/29 09:17:16;;;;;;;4.03;2.25;;;19.90;79.00;;;;;;5053768;28;20032;-77
2023/05/29 09:19:42;;;;;;;3.70;1.95;;;19.90;79.20;;;;;;5058874;28;20021;-82
2023/05/29 09:22:16;;;;;;;5.03;2.40;;;20.00;79.40;;;;;;5063833;28;20053;-81
2023/05/29 09:24:46;;;;;;;7.18;2.67;;;20.00;81.20;;;;;;5052476;28;20025;-79
2023/05/29 09:27:11;;;;;;;3.97;2.30;;;20.10;82.40;;;;;;5069749;28;20032;-79
2023/05/29 09:29:42;;;;;;;4.10;2.15;;;20.10;79.50;;;;;;5052699;28;20155;-80
2023/05/29 09:32:12;;;;;;;5.70;2.67;;;20.10;79.40;;;;;;5063224;28;20028;-80
2023/05/29 09:34:38;;;;;;;6.30;2.70;;;20.10;81.00;;;;;;5072676;28;20032;-80
2023/05/29 09:37:08;;;;;;;6.03;2.40;;;20.20;80.90;;;;;;5072883;28;20033;-79
2023/05/29 09:39:54;;;;;;;6.93;2.25;;;20.30;79.60;;;;;;5055932;28;20056;-79
2023/05/29 09:42:20;;;;;;;6.38;2.20;;;20.30;80.20;;;;;;5063221;28;20044;-79
2023/05/29 09:44:51;;;;;;;5.93;2.38;;;20.40;77.60;;;;;;5057884;28;20029;-80
2023/05/29 09:47:17;;;;;;;6.40;2.80;;;20.40;76.60;;;;;;5055585;28;20025;-80
2023/05/29 09:49:44;;;;;;;3.92;2.20;;;20.50;76.30;;;;;;5089293;28;20059;-80
2023/05/29 09:52:16;;;;;;;5.65;2.53;;;20.50;76.40;;;;;;5069296;28;20531;-82
2023/05/29 09:54:46;;;;;;;7.07;2.60;;;20.60;76.70;;;;;;5068623;28;20473;-83
2023/05/29 09:57:16;;;;;;;5.28;2.25;;;20.70;75.30;;;;;;5068710;28;20078;-78
2023/05/29 09:59:51;;;;;;;4.53;2.47;;;20.80;76.20;;;;;;5061130;28;20024;-81
2023/05/29 10:02:17;;;;;;;5.65;2.15;;;20.90;77.10;;;;;;5068388;28;20066;-80
2023/05/29 10:04:46;;;;;;;4.68;2.30;;;21.00;76.00;;;;;;5068301;28;20051;-80
2023/05/29 10:07:35;;;;;;;3.33;2.25;;;21.00;74.90;;;;;;5070534;28;20450;-81
2023/05/29 10:10:03;;;;;;;5.38;2.60;;;21.00;75.10;;;;;;5069067;28;20094;-80
2023/05/29 10:12:31;;;;;;;3.75;2.35;;;21.10;74.30;;;;;;5060289;28;20108;-79
2023/05/29 10:15:00;;;;;;;5.20;2.58;;;21.30;77.00;;;;;;5068602;28;20134;-81
2023/05/29 10:17:29;;;;;;;5.28;2.50;;;21.40;76.70;;;;;;5055982;28;20454;-80
2023/05/29 10:19:58;;;;;;;4.97;2.78;;;21.40;76.50;;;;;;5053230;28;20029;-81
2023/05/29 10:22:26;;;;;;;3.72;2.30;;;21.50;73.50;;;;;;5055617;28;20029;-81
2023/05/29 10:24:52;;;;;;;4.05;2.35;;;21.50;73.20;;;;;;5054275;28;20036;-80
2023/05/29 10:27:19;;;;;;;4.95;2.20;;;21.60;72.30;;;;;;5068838;28;20024;-79
2023/05/29 10:30:05;;;;;;;5.88;2.38;;;21.60;75.00;;;;;;5075150;28;20032;-80
2023/05/29 10:32:40;;;;;;;5.28;2.40;;;21.70;74.70;;;;;;5071987;28;20020;-84
2023/05/29 10:35:16;;;;;;;5.32;2.42;;;21.90;72.80;;;;;;5056742;28;20065;-80
2023/05/29 10:37:57;;;;;;;6.38;2.67;;;22.00;72.70;;;;;;5066886;28;20028;-79
2023/05/29 10:40:25;;;;;;;4.00;2.33;;;22.00;72.90;;;;;;5055215;28;20037;-80
2023/05/29 10:42:54;;;;;;;5.57;2.40;;;22.10;72.10;;;;;;5066443;28;20037;-80
2023/05/29 10:45:29;;;;;;;5.20;2.38;;;22.10;70.80;;;;;;5061523;28;20033;-79
2023/05/29 10:47:54;;;;;;;4.90;2.13;;;22.10;71.00;;;;;;5063813;28;20098;-80
2023/05/29 10:50:42;;;;;;;5.80;2.22;;;22.20;72.70;;;;;;5064431;28;20086;-81
2023/05/29 10:53:12;;;;;;;6.70;2.20;;;22.30;73.10;;;;;;5056502;28;20029;-82
2023/05/29 10:55:39;;;;;;;20.95;11.50;;;22.30;73.00;;;;;;5070712;28;20020;-80
2023/05/29 10:58:18;;;;;;;15.85;8.32;;;22.40;69.80;;;;;;5062875;28;20504;-82
2023/05/29 11:00:46;;;;;;;7.55;3.17;;;22.50;72.30;;;;;;5064583;28;20047;-82
2023/05/29 11:03:15;;;;;;;4.72;2.30;;;22.50;72.40;;;;;;5069292;28;20036;-80
2023/05/29 11:06:12;;;;;;;4.43;2.10;;;22.60;72.90;;;;;;5069254;28;20024;-82
2023/05/29 11:08:53;;;;;;;3.83;2.00;;;22.60;70.10;;;;;;5061946;28;20021;-82
2023/05/29 11:11:28;;;;;;;6.82;2.25;;;22.70;69.60;;;;;;5071910;28;20147;-81
2023/05/29 11:13:55;;;;;;;4.18;2.22;;;22.70;70.90;;;;;;5066214;28;20032;-80
2023/05/29 11:16:29;;;;;;;4.32;2.47;;;22.90;72.80;;;;;;5072153;28;20082;-80
2023/05/29 11:18:56;;;;;;;4.47;1.90;;;22.80;70.30;;;;;;5068961;28;20111;-80
2023/05/29 11:21:37;;;;;;;7.50;2.40;;;22.80;70.60;;;;;;5071817;28;20370;-80
2023/05/29 11:24:06;;;;;;;3.60;1.97;;;23.00;68.60;;;;;;5062793;28;20036;-81
2023/05/29 11:26:32;;;;;;;3.47;1.85;;;23.00;67.70;;;;;;5064696;28;20082;-86
2023/05/29 11:29:04;;;;;;;3.30;2.15;;;23.00;67.00;;;;;;5057172;28;20025;-80
2023/05/29 11:31:34;;;;;;;4.90;2.20;;;23.00;69.40;;;;;;5059423;28;20513;-80
2023/05/29 11:34:02;;;;;;;8.73;2.10;;;23.10;68.00;;;;;;5066600;28;20039;-80
2023/05/29 11:36:28;;;;;;;4.05;2.35;;;23.20;69.70;;;;;;5068642;28;20020;-81
2023/05/29 11:38:54;;;;;;;4.63;2.15;;;23.30;69.60;;;;;;5069057;28;20074;-81
2023/05/29 11:41:20;;;;;;;8.65;2.15;;;23.40;69.20;;;;;;5073255;28;20032;-80
2023/05/29 11:44:01;;;;;;;5.15;2.20;;;23.50;70.10;;;;;;5061111;28;20116;-80
2023/05/29 11:46:27;;;;;;;3.83;2.03;;;23.50;67.60;;;;;;5063224;28;20079;-79
2023/05/29 11:48:53;;;;;;;5.75;2.20;;;23.60;67.20;;;;;;5070360;28;20032;-81
2023/05/29 11:51:19;;;;;;;5.78;2.25;;;23.70;67.60;;;;;;5059681;28;20385;-81
2023/05/29 11:53:47;;;;;;;5.10;2.35;;;23.80;64.50;;;;;;5073773;28;20460;-85
2023/05/29 11:56:13;;;;;;;6.28;2.40;;;23.80;64.50;;;;;;5069815;28;20032;-85
2023/05/29 11:58:39;;;;;;;5.22;2.10;;;23.90;62.90;;;;;;5071803;28;20016;-83
2023/05/29 12:01:07;;;;;;;4.47;2.25;;;23.90;62.70;;;;;;5071683;28;20499;-84
2023/05/29 12:03:42;;;;;;;9.40;2.45;;;23.90;63.50;;;;;;5070707;28;20032;-87
2023/05/29 12:06:10;;;;;;;5.50;2.22;;;24.10;65.90;;;;;;5083408;28;20078;-85
2023/05/29 12:08:37;;;;;;;2.97;1.98;;;24.10;63.40;;;;;;5067999;28;20023;-85
2023/05/29 12:11:03;;;;;;;3.47;2.20;;;24.20;60.60;;;;;;5074108;28;20487;-80
2023/05/29 12:13:29;;;;;;;4.57;2.38;;;24.20;59.20;;;;;;5058699;28;20024;-80
2023/05/29 12:15:58;;;;;;;3.80;2.00;;;24.20;61.30;;;;;;5067915;28;20031;-79
2023/05/29 12:18:24;;;;;;;4.45;2.08;;;24.30;62.30;;;;;;5067059;28;20036;-79
2023/05/29 12:20:50;;;;;;;2.70;2.13;;;24.30;60.30;;;;;;5058840;28;20041;-79
2023/05/29 12:23:20;;;;;;;4.05;1.90;;;24.40;60.20;;;;;;5070782;28;20123;-80
2023/05/29 12:25:46;;;;;;;4.80;2.10;;;24.40;59.30;;;;;;5061656;28;20029;-80
2023/05/29 12:28:19;;;;;;;5.38;2.15;;;24.40;58.80;;;;;;5064799;28;20052;-80
2023/05/29 12:30:49;;;;;;;3.28;2.25;;;24.60;59.30;;;;;;5068590;28;20040;-80
2023/05/29 12:33:31;;;;;;;4.10;2.00;;;24.70;60.30;;;;;;5072105;28;20032;-79
2023/05/29 12:36:11;;;;;;;3.28;2.10;;;24.90;57.90;;;;;;5062675;28;20027;-80
2023/05/29 12:38:50;;;;;;;6.25;2.10;;;25.00;57.30;;;;;;5067293;28;20025;-81
2023/05/29 12:41:26;;;;;;;3.53;2.05;;;25.20;59.00;;;;;;5073600;28;20036;-83
2023/05/29 12:44:00;;;;;;;4.43;2.10;;;25.40;59.70;;;;;;5065902;28;20123;-79
2023/05/29 12:46:27;;;;;;;3.10;1.67;;;25.50;58.70;;;;;;5082568;28;20034;-79
2023/05/29 12:48:54;;;;;;;3.88;1.98;;;25.70;58.60;;;;;;5073603;28;20082;-79